sensor_id;sensor_type;location;lat;lon;timestamp;P1;durP1;ratioP1;P2;durP2;ratioP2
6902;SDS011;20232;49.408;8.702;2023-04-24T11:08:15;3.93;;;1.50;;
6902;SDS011;20232;49.408;8.702;2023-04-24T11:10:46;4.53;;;1.30;;
6902;SDS011;20232;49.408;8.702;2023-04-24T11:13:21;4.33;;;1.40;;
6902;SDS011;20232;49.408;8.702;2023-04-24T11:19:10;1.87;;;1.27;;
6902;SDS011;20232;49.408;8.702;2023-04-24T11:21:43;2.30;;;1.10;;
6902;SDS011;20232;49.408;8.702;2023-04-24T11:24:23;2.17;;;1.30;;
6902;SDS011;20232;49.408;8.702;2023-04-24T11:26:55;2.03;;;1.20;;
6902;SDS011;20232;49.408;8.702;2023-04-24T11:29:22;1.90;;;1.40;;
6902;SDS011;20232;49.408;8.702;2023-04-24T14:51:05;1.97;;;1.60;;
6902;SDS011;20232;49.408;8.702;2023-04-24T14:53:30;2.17;;;1.70;;
6902;SDS011;20232;49.408;8.702;2023-04-24T14:55:56;1.90;;;1.80;;
6902;SDS011;20232;49.408;8.702;2023-04-24T14:58:21;2.70;;;1.83;;
6902;SDS011;20232;49.408;8.702;2023-04-24T15:00:47;2.07;;;1.70;;
6902;SDS011;20232;49.408;8.702;2023-04-24T15:03:16;2.57;;;1.60;;
6902;SDS011;20232;49.408;8.702;2023-04-24T15:05:43;1.90;;;1.80;;
6902;SDS011;20232;49.408;8.702;2023-04-24T15:08:08;1.97;;;1.70;;
6902;SDS011;20232;49.408;8.702;2023-04-24T15:10:34;1.90;;;1.80;;
6902;SDS011;20232;49.408;8.702;2023-04-24T15:13:00;1.90;;;1.70;;
6902;SDS011;20232;49.408;8.702;2023-04-24T15:19:08;1.13;;;1.03;;
6902;SDS011;20232;49.408;8.702;2023-04-24T15:24:26;4.18;;;3.28;;
6902;SDS011;20232;49.408;8.702;2023-04-24T15:26:51;4.00;;;3.13;;
6902;SDS011;20232;49.408;8.702;2023-04-24T15:29:18;6.10;;;3.43;;
6902;SDS011;20232;49.408;8.702;2023-04-24T15:31:43;4.47;;;3.73;;
6902;SDS011;20232;49.408;8.702;2023-04-24T15:34:09;5.93;;;4.30;;
6902;SDS011;20232;49.408;8.702;2023-04-24T15:36:35;5.50;;;4.93;;
6902;SDS011;20232;49.408;8.702;2023-04-24T15:39:01;5.13;;;4.63;;
6902;SDS011;20232;49.408;8.702;2023-04-24T15:41:27;5.87;;;5.27;;
6902;SDS011;20232;49.408;8.702;2023-04-24T15:43:53;5.60;;;5.20;;
6902;SDS011;20232;49.408;8.702;2023-04-24T15:46:18;5.90;;;5.40;;
6902;SDS011;20232;49.408;8.702;2023-04-24T15:48:44;6.03;;;5.37;;
6902;SDS011;20232;49.408;8.702;2023-04-24T15:51:09;7.10;;;5.80;;
6902;SDS011;20232;49.408;8.702;2023-04-24T15:53:35;5.50;;;5.00;;
6902;SDS011;20232;49.408;8.702;2023-04-24T15:56:01;5.87;;;5.30;;
6902;SDS011;20232;49.408;8.702;2023-04-24T15:58:27;5.93;;;4.57;;
6902;SDS011;20232;49.408;8.702;2023-04-24T16:00:52;4.63;;;4.20;;
6902;SDS011;20232;49.408;8.702;2023-04-24T16:03:19;4.47;;;4.07;;
6902;SDS011;20232;49.408;8.702;2023-04-24T16:05:45;6.23;;;3.80;;
6902;SDS011;20232;49.408;8.702;2023-04-24T16:08:10;6.07;;;3.80;;
6902;SDS011;20232;49.408;8.702;2023-04-24T16:10:38;4.10;;;3.63;;
6902;SDS011;20232;49.408;8.702;2023-04-24T16:13:03;4.10;;;3.80;;
6902;SDS011;20232;49.408;8.702;2023-04-24T16:15:29;4.27;;;3.87;;
6902;SDS011;20232;49.408;8.702;2023-04-24T16:17:55;9.67;;;3.60;;
6902;SDS011;20232;49.408;8.702;2023-04-24T16:20:20;3.90;;;3.13;;
6902;SDS011;20232;49.408;8.702;2023-04-24T16:22:46;3.10;;;2.90;;
6902;SDS011;20232;49.408;8.702;2023-04-24T16:25:11;3.33;;;3.13;;
6902;SDS011;20232;49.408;8.702;2023-04-24T16:27:37;3.17;;;2.87;;
6902;SDS011;20232;49.408;8.702;2023-04-24T16:30:03;3.20;;;3.00;;
6902;SDS011;20232;49.408;8.702;2023-04-24T16:32:29;2.87;;;2.67;;
6902;SDS011;20232;49.408;8.702;2023-04-24T16:34:55;2.83;;;2.53;;
6902;SDS011;20232;49.408;8.702;2023-04-24T16:37:20;2.90;;;2.67;;
6902;SDS011;20232;49.408;8.702;2023-04-24T16:39:46;3.23;;;2.70;;
6902;SDS011;20232;49.408;8.702;2023-04-24T16:42:12;2.70;;;2.50;;
6902;SDS011;20232;49.408;8.702;2023-04-24T16:44:39;3.20;;;3.00;;
6902;SDS011;20232;49.408;8.702;2023-04-24T16:47:06;3.23;;;2.93;;
6902;SDS011;20232;49.408;8.702;2023-04-24T16:49:33;3.87;;;2.90;;
6902;SDS011;20232;49.408;8.702;2023-04-24T16:51:59;3.20;;;2.90;;
6902;SDS011;20232;49.408;8.702;2023-04-24T16:54:24;3.60;;;3.30;;
6902;SDS011;20232;49.408;8.702;2023-04-24T16:56:51;4.23;;;3.30;;
6902;SDS011;20232;49.408;8.702;2023-04-24T16:59:17;3.27;;;3.03;;
6902;SDS011;20232;49.408;8.702;2023-04-24T17:01:43;3.40;;;3.10;;
6902;SDS011;20232;49.408;8.702;2023-04-24T17:04:09;3.40;;;3.10;;
6902;SDS011;20232;49.408;8.702;2023-04-24T17:06:35;3.80;;;3.17;;
6902;SDS011;20232;49.408;8.702;2023-04-24T17:09:00;3.20;;;2.90;;
6902;SDS011;20232;49.408;8.702;2023-04-24T17:11:27;4.07;;;3.40;;
6902;SDS011;20232;49.408;8.702;2023-04-24T17:13:53;4.93;;;3.20;;
6902;SDS011;20232;49.408;8.702;2023-04-24T17:16:18;3.77;;;3.20;;
6902;SDS011;20232;49.408;8.702;2023-04-24T17:18:44;3.70;;;3.40;;
6902;SDS011;20232;49.408;8.702;2023-04-24T17:21:10;3.93;;;3.53;;
6902;SDS011;20232;49.408;8.702;2023-04-24T17:23:35;4.73;;;4.20;;
6902;SDS011;20232;49.408;8.702;2023-04-24T17:26:01;5.33;;;3.83;;
6902;SDS011;20232;49.408;8.702;2023-04-24T17:28:28;4.20;;;3.70;;
6902;SDS011;20232;49.408;8.702;2023-04-24T17:30:55;6.07;;;3.80;;
6902;SDS011;20232;49.408;8.702;2023-04-24T17:33:24;5.23;;;3.10;;
6902;SDS011;20232;49.408;8.702;2023-04-24T17:35:50;3.80;;;3.50;;
6902;SDS011;20232;49.408;8.702;2023-04-24T17:38:16;3.53;;;3.23;;
6902;SDS011;20232;49.408;8.702;2023-04-24T17:40:42;3.93;;;3.60;;
6902;SDS011;20232;49.408;8.702;2023-04-24T17:43:09;3.63;;;3.33;;
6902;SDS011;20232;49.408;8.702;2023-04-24T17:45:42;6.70;;;3.87;;
6902;SDS011;20232;49.408;8.702;2023-04-24T17:48:09;4.10;;;3.73;;
6902;SDS011;20232;49.408;8.702;2023-04-24T17:50:35;3.87;;;3.30;;
6902;SDS011;20232;49.408;8.702;2023-04-24T17:53:01;4.27;;;3.73;;
6902;SDS011;20232;49.408;8.702;2023-04-24T17:55:27;5.33;;;3.70;;
6902;SDS011;20232;49.408;8.702;2023-04-24T17:57:53;4.83;;;3.77;;
6902;SDS011;20232;49.408;8.702;2023-04-24T18:00:18;4.73;;;4.23;;
6902;SDS011;20232;49.408;8.702;2023-04-24T18:02:44;4.67;;;4.23;;
6902;SDS011;20232;49.408;8.702;2023-04-24T18:05:10;5.03;;;4.40;;
6902;SDS011;20232;49.408;8.702;2023-04-24T18:07:35;5.40;;;4.90;;
6902;SDS011;20232;49.408;8.702;2023-04-24T18:10:01;5.53;;;5.00;;
6902;SDS011;20232;49.408;8.702;2023-04-24T18:12:27;5.30;;;4.83;;
6902;SDS011;20232;49.408;8.702;2023-04-24T18:14:53;5.67;;;4.60;;
6902;SDS011;20232;49.408;8.702;2023-04-24T18:17:19;4.67;;;4.17;;
6902;SDS011;20232;49.408;8.702;2023-04-24T18:19:44;4.77;;;4.33;;
6902;SDS011;20232;49.408;8.702;2023-04-24T18:22:10;4.50;;;4.10;;
6902;SDS011;20232;49.408;8.702;2023-04-24T18:24:35;4.50;;;3.70;;
6902;SDS011;20232;49.408;8.702;2023-04-24T18:27:01;3.83;;;3.53;;
6902;SDS011;20232;49.408;8.702;2023-04-24T18:29:28;5.40;;;3.40;;
6902;SDS011;20232;49.408;8.702;2023-04-24T18:31:53;3.40;;;3.10;;
6902;SDS011;20232;49.408;8.702;2023-04-24T18:34:19;3.50;;;3.20;;
6902;SDS011;20232;49.408;8.702;2023-04-24T18:36:44;3.57;;;3.13;;
6902;SDS011;20232;49.408;8.702;2023-04-24T18:39:10;3.50;;;3.20;;
6902;SDS011;20232;49.408;8.702;2023-04-24T18:41:36;3.43;;;2.90;;
6902;SDS011;20232;49.408;8.702;2023-04-24T18:44:01;3.77;;;3.30;;
6902;SDS011;20232;49.408;8.702;2023-04-24T18:46:27;3.27;;;2.93;;
6902;SDS011;20232;49.408;8.702;2023-04-24T18:48:52;3.30;;;3.00;;
6902;SDS011;20232;49.408;8.702;2023-04-24T18:51:18;3.03;;;2.60;;
6902;SDS011;20232;49.408;8.702;2023-04-24T18:53:43;2.80;;;2.60;;
6902;SDS011;20232;49.408;8.702;2023-04-24T18:56:09;4.27;;;2.90;;
6902;SDS011;20232;49.408;8.702;2023-04-24T18:58:35;3.63;;;2.93;;
6902;SDS011;20232;49.408;8.702;2023-04-24T19:01:00;3.27;;;2.97;;
6902;SDS011;20232;49.408;8.702;2023-04-24T19:03:26;5.10;;;3.10;;
6902;SDS011;20232;49.408;8.702;2023-04-24T19:05:53;3.67;;;3.00;;
6902;SDS011;20232;49.408;8.702;2023-04-24T19:08:19;3.20;;;2.90;;
6902;SDS011;20232;49.408;8.702;2023-04-24T19:10:44;4.13;;;3.17;;
6902;SDS011;20232;49.408;8.702;2023-04-24T19:13:10;3.50;;;3.20;;
6902;SDS011;20232;49.408;8.702;2023-04-24T19:15:35;3.90;;;3.20;;
6902;SDS011;20232;49.408;8.702;2023-04-24T19:18:01;2.83;;;2.63;;
6902;SDS011;20232;49.408;8.702;2023-04-24T19:20:27;3.47;;;2.80;;
6902;SDS011;20232;49.408;8.702;2023-04-24T19:22:53;3.63;;;3.20;;
6902;SDS011;20232;49.408;8.702;2023-04-24T19:25:19;3.93;;;3.20;;
6902;SDS011;20232;49.408;8.702;2023-04-24T19:27:44;3.70;;;3.40;;
6902;SDS011;20232;49.408;8.702;2023-04-24T19:30:10;3.40;;;3.07;;
6902;SDS011;20232;49.408;8.702;2023-04-24T19:32:36;3.90;;;3.60;;
6902;SDS011;20232;49.408;8.702;2023-04-24T19:35:01;3.57;;;3.23;;
6902;SDS011;20232;49.408;8.702;2023-04-24T19:37:27;3.43;;;3.13;;
6902;SDS011;20232;49.408;8.702;2023-04-24T19:39:56;3.50;;;3.20;;
6902;SDS011;20232;49.408;8.702;2023-04-24T19:42:21;3.30;;;3.10;;
6902;SDS011;20232;49.408;8.702;2023-04-24T19:44:47;3.57;;;3.27;;
6902;SDS011;20232;49.408;8.702;2023-04-24T19:47:12;3.63;;;3.33;;
6902;SDS011;20232;49.408;8.702;2023-04-24T19:49:38;4.00;;;3.60;;
6902;SDS011;20232;49.408;8.702;2023-04-24T19:52:03;4.20;;;3.80;;
6902;SDS011;20232;49.408;8.702;2023-04-24T19:54:29;4.23;;;3.87;;
6902;SDS011;20232;49.408;8.702;2023-04-24T19:56:55;4.10;;;3.70;;
6902;SDS011;20232;49.408;8.702;2023-04-24T19:59:20;5.07;;;3.77;;
6902;SDS011;20232;49.408;8.702;2023-04-24T20:01:46;4.20;;;3.80;;
6902;SDS011;20232;49.408;8.702;2023-04-24T20:04:12;4.50;;;4.10;;
6902;SDS011;20232;49.408;8.702;2023-04-24T20:06:38;4.23;;;3.80;;
6902;SDS011;20232;49.408;8.702;2023-04-24T20:09:03;4.33;;;4.03;;
6902;SDS011;20232;49.408;8.702;2023-04-24T20:11:32;4.13;;;3.77;;
6902;SDS011;20232;49.408;8.702;2023-04-24T20:13:58;5.13;;;4.60;;
6902;SDS011;20232;49.408;8.702;2023-04-24T20:16:25;4.17;;;3.83;;
6902;SDS011;20232;49.408;8.702;2023-04-24T20:18:51;4.60;;;4.20;;
6902;SDS011;20232;49.408;8.702;2023-04-24T20:21:16;4.10;;;3.80;;
6902;SDS011;20232;49.408;8.702;2023-04-24T20:23:42;4.30;;;3.90;;
6902;SDS011;20232;49.408;8.702;2023-04-24T20:26:07;4.63;;;4.27;;
6902;SDS011;20232;49.408;8.702;2023-04-24T20:28:35;4.73;;;4.30;;
6902;SDS011;20232;49.408;8.702;2023-04-24T20:31:00;5.03;;;4.40;;
6902;SDS011;20232;49.408;8.702;2023-04-24T20:33:27;5.47;;;4.40;;
6902;SDS011;20232;49.408;8.702;2023-04-24T20:35:54;4.93;;;4.30;;
6902;SDS011;20232;49.408;8.702;2023-04-24T20:38:20;4.93;;;4.53;;
6902;SDS011;20232;49.408;8.702;2023-04-24T20:40:46;5.47;;;4.27;;
6902;SDS011;20232;49.408;8.702;2023-04-24T20:43:13;4.90;;;4.40;;
6902;SDS011;20232;49.408;8.702;2023-04-24T20:45:39;4.87;;;4.47;;
6902;SDS011;20232;49.408;8.702;2023-04-24T20:48:04;5.43;;;4.00;;
6902;SDS011;20232;49.408;8.702;2023-04-24T20:50:32;4.50;;;4.10;;
6902;SDS011;20232;49.408;8.702;2023-04-24T20:52:58;4.30;;;4.00;;
6902;SDS011;20232;49.408;8.702;2023-04-24T20:55:24;4.50;;;4.10;;
6902;SDS011;20232;49.408;8.702;2023-04-24T20:57:49;4.77;;;4.37;;
6902;SDS011;20232;49.408;8.702;2023-04-24T21:00:16;5.27;;;4.20;;
6902;SDS011;20232;49.408;8.702;2023-04-24T21:02:41;4.50;;;4.10;;
6902;SDS011;20232;49.408;8.702;2023-04-24T21:05:07;4.27;;;3.93;;
6902;SDS011;20232;49.408;8.702;2023-04-24T21:07:33;4.07;;;3.73;;
6902;SDS011;20232;49.408;8.702;2023-04-24T21:09:58;4.03;;;3.73;;
6902;SDS011;20232;49.408;8.702;2023-04-24T21:12:24;4.10;;;3.73;;
6902;SDS011;20232;49.408;8.702;2023-04-24T21:14:50;3.97;;;3.67;;
6902;SDS011;20232;49.408;8.702;2023-04-24T21:17:15;3.93;;;3.53;;
6902;SDS011;20232;49.408;8.702;2023-04-24T21:19:41;4.40;;;3.83;;
6902;SDS011;20232;49.408;8.702;2023-04-24T21:22:06;3.97;;;3.67;;
6902;SDS011;20232;49.408;8.702;2023-04-24T21:24:32;4.00;;;3.70;;
6902;SDS011;20232;49.408;8.702;2023-04-24T21:26:57;3.63;;;3.33;;
6902;SDS011;20232;49.408;8.702;2023-04-24T21:29:23;3.87;;;3.47;;
6902;SDS011;20232;49.408;8.702;2023-04-24T21:31:48;3.73;;;3.43;;
6902;SDS011;20232;49.408;8.702;2023-04-24T21:34:14;3.93;;;3.53;;
6902;SDS011;20232;49.408;8.702;2023-04-24T21:36:39;3.77;;;3.43;;
6902;SDS011;20232;49.408;8.702;2023-04-24T21:39:05;4.07;;;3.77;;
6902;SDS011;20232;49.408;8.702;2023-04-24T21:41:31;4.40;;;3.67;;
6902;SDS011;20232;49.408;8.702;2023-04-24T21:43:56;3.83;;;3.53;;
6902;SDS011;20232;49.408;8.702;2023-04-24T21:46:23;4.17;;;3.70;;
6902;SDS011;20232;49.408;8.702;2023-04-24T21:48:48;4.00;;;3.70;;
6902;SDS011;20232;49.408;8.702;2023-04-24T21:51:14;4.20;;;3.90;;
6902;SDS011;20232;49.408;8.702;2023-04-24T21:53:40;4.03;;;3.77;;
6902;SDS011;20232;49.408;8.702;2023-04-24T21:56:06;4.10;;;3.63;;
6902;SDS011;20232;49.408;8.702;2023-04-24T21:58:31;3.60;;;3.40;;
6902;SDS011;20232;49.408;8.702;2023-04-24T22:00:58;4.13;;;3.40;;
6902;SDS011;20232;49.408;8.702;2023-04-24T22:03:23;4.37;;;4.07;;
6902;SDS011;20232;49.408;8.702;2023-04-24T22:05:49;4.23;;;3.80;;
6902;SDS011;20232;49.408;8.702;2023-04-24T22:08:14;4.57;;;4.13;;
6902;SDS011;20232;49.408;8.702;2023-04-24T22:10:40;4.10;;;3.80;;
6902;SDS011;20232;49.408;8.702;2023-04-24T22:13:06;4.40;;;4.00;;
6902;SDS011;20232;49.408;8.702;2023-04-24T22:15:31;4.40;;;4.00;;
6902;SDS011;20232;49.408;8.702;2023-04-24T22:17:57;4.77;;;4.27;;
6902;SDS011;20232;49.408;8.702;2023-04-24T22:20:22;4.50;;;4.10;;
6902;SDS011;20232;49.408;8.702;2023-04-24T22:22:49;4.50;;;4.20;;
6902;SDS011;20232;49.408;8.702;2023-04-24T22:25:16;4.47;;;4.07;;
6902;SDS011;20232;49.408;8.702;2023-04-24T22:27:41;4.17;;;3.87;;
6902;SDS011;20232;49.408;8.702;2023-04-24T22:30:07;4.20;;;3.90;;
6902;SDS011;20232;49.408;8.702;2023-04-24T22:32:33;4.63;;;4.23;;
6902;SDS011;20232;49.408;8.702;2023-04-24T22:35:00;4.80;;;4.13;;
6902;SDS011;20232;49.408;8.702;2023-04-24T22:37:25;4.60;;;4.20;;
6902;SDS011;20232;49.408;8.702;2023-04-24T22:39:51;4.70;;;4.30;;
6902;SDS011;20232;49.408;8.702;2023-04-24T22:42:17;4.70;;;4.00;;
6902;SDS011;20232;49.408;8.702;2023-04-24T22:44:42;5.03;;;4.17;;
6902;SDS011;20232;49.408;8.702;2023-04-24T22:47:08;4.57;;;4.17;;
6902;SDS011;20232;49.408;8.702;2023-04-24T22:49:34;3.90;;;3.60;;
6902;SDS011;20232;49.408;8.702;2023-04-24T22:52:00;4.10;;;3.80;;
6902;SDS011;20232;49.408;8.702;2023-04-24T22:54:28;4.87;;;4.30;;
6902;SDS011;20232;49.408;8.702;2023-04-24T22:56:56;4.90;;;4.40;;
6902;SDS011;20232;49.408;8.702;2023-04-24T22:59:21;4.67;;;4.27;;
